createdAt,value
2017-05-30T00:00:17.200Z,19.20
2017-05-30T00:02:45.552Z,19.20
2017-05-30T00:05:14.040Z,19.10
2017-05-30T00:07:42.397Z,19.10
2017-05-30T00:18:51.275Z,19.00
2017-05-30T00:21:19.674Z,19.00
2017-05-30T00:23:47.265Z,19.00
2017-05-30T00:26:15.660Z,19.00
2017-05-30T00:28:44.017Z,18.90
2017-05-30T00:31:12.389Z,19.00
2017-05-30T00:33:40.131Z,19.00
2017-05-30T00:36:08.480Z,19.00
2017-05-30T00:38:36.849Z,19.00
2017-05-30T00:41:05.316Z,19.00
2017-05-30T00:43:33.661Z,19.00
2017-05-30T00:46:02.012Z,19.10
2017-05-30T00:48:30.463Z,19.00
2017-05-30T00:50:58.807Z,19.00
2017-05-30T00:53:27.157Z,19.00
2017-05-30T00:55:55.738Z,19.00
2017-05-30T00:58:24.084Z,19.00
2017-05-30T01:00:52.438Z,19.00
2017-05-30T01:03:20.849Z,19.00
2017-05-30T01:05:49.190Z,19.00
2017-05-30T01:08:17.566Z,19.00
2017-05-30T01:10:45.977Z,19.00
2017-05-30T01:13:14.320Z,19.00
2017-05-30T01:15:42.675Z,19.00
2017-05-30T01:18:11.070Z,19.00
2017-05-30T01:20:39.410Z,19.00
2017-05-30T01:23:07.784Z,19.00
2017-05-30T01:25:36.303Z,19.00
2017-05-30T01:28:04.652Z,18.90
2017-05-30T01:30:32.995Z,18.80
2017-05-30T01:33:01.369Z,18.80
2017-05-30T01:35:29.711Z,18.80
2017-05-30T01:37:58.058Z,18.80
2017-05-30T01:40:26.541Z,18.80
2017-05-30T01:42:54.902Z,18.70
2017-05-30T01:45:23.261Z,18.70
2017-05-30T01:47:51.641Z,18.70
2017-05-30T01:50:19.992Z,18.70
2017-05-30T01:52:48.327Z,18.70
2017-05-30T01:55:16.863Z,18.70
2017-05-30T01:57:45.235Z,18.70
2017-05-30T02:00:13.573Z,18.60
2017-05-30T02:02:41.974Z,18.60
2017-05-30T02:05:10.340Z,18.60
2017-05-30T02:07:38.693Z,18.50
2017-05-30T02:10:07.217Z,18.50
2017-05-30T02:12:35.569Z,18.50
2017-05-30T02:15:03.152Z,18.50
2017-05-30T02:17:31.548Z,18.40
2017-05-30T02:19:59.122Z,18.40
2017-05-30T02:22:26.708Z,18.50
2017-05-30T02:24:55.287Z,18.30
2017-05-30T02:27:23.633Z,18.40
2017-05-30T02:29:51.977Z,18.40
2017-05-30T02:32:20.494Z,18.40
2017-05-30T02:34:48.834Z,18.40
2017-05-30T02:37:17.177Z,18.40
2017-05-30T02:39:45.684Z,18.40
2017-05-30T02:42:14.028Z,18.40
2017-05-30T02:44:42.388Z,18.30
2017-05-30T02:47:11.085Z,18.30
2017-05-30T02:49:39.423Z,18.20
2017-05-30T02:52:07.004Z,18.20
2017-05-30T02:54:35.371Z,18.20
2017-05-30T02:57:03.708Z,18.30
2017-05-30T02:59:32.665Z,18.20
2017-05-30T03:02:02.016Z,18.30
2017-05-30T03:04:30.364Z,18.20
2017-05-30T03:06:58.709Z,18.20
2017-05-30T03:09:27.109Z,18.30
2017-05-30T03:11:55.449Z,18.20
2017-05-30T03:14:23.817Z,18.20
2017-05-30T03:16:52.225Z,18.20
2017-05-30T03:19:20.588Z,18.10
2017-05-30T03:21:48.936Z,18.10
2017-05-30T03:24:17.484Z,18.10
2017-05-30T03:26:45.832Z,18.10
2017-05-30T03:29:14.173Z,18.20
2017-05-30T03:31:41.937Z,18.10
2017-05-30T03:34:10.296Z,18.30
2017-05-30T03:36:38.658Z,18.30
2017-05-30T03:39:07.169Z,18.40
2017-05-30T03:41:35.511Z,18.50
2017-05-30T03:44:03.863Z,18.60
2017-05-30T03:46:32.599Z,18.60
2017-05-30T03:49:00.951Z,18.70
2017-05-30T03:51:29.303Z,18.70
2017-05-30T03:53:57.852Z,18.80
2017-05-30T03:56:26.184Z,18.70
2017-05-30T03:58:54.525Z,18.80
2017-05-30T04:01:22.917Z,18.70
2017-05-30T04:03:51.258Z,18.50
2017-05-30T04:06:19.608Z,18.30
2017-05-30T04:08:48.012Z,18.30
2017-05-30T04:11:15.588Z,18.30
2017-05-30T04:13:43.926Z,18.40
2017-05-30T04:16:12.389Z,18.40
2017-05-30T04:18:40.723Z,18.20
2017-05-30T04:21:09.077Z,18.10
2017-05-30T04:23:37.599Z,18.10
2017-05-30T04:26:05.948Z,18.00
2017-05-30T04:28:41.960Z,18.00
2017-05-30T04:31:10.312Z,17.90
2017-05-30T04:33:38.681Z,17.90
2017-05-30T04:36:07.052Z,17.90
2017-05-30T04:38:35.400Z,17.90
2017-05-30T04:41:03.905Z,17.90
2017-05-30T04:43:32.265Z,17.80
2017-05-30T04:45:59.870Z,17.80
2017-05-30T04:48:28.394Z,17.80
2017-05-30T04:50:56.750Z,17.90
2017-05-30T04:53:25.490Z,18.00
2017-05-30T04:55:53.896Z,18.00
2017-05-30T04:58:22.232Z,18.10
2017-05-30T05:00:50.568Z,18.10
2017-05-30T05:03:19.241Z,18.10
2017-05-30T05:05:47.597Z,18.10
2017-05-30T05:08:15.940Z,18.10
2017-05-30T05:10:44.705Z,18.10
2017-05-30T05:13:12.268Z,18.10
2017-05-30T05:15:39.836Z,18.20
2017-05-30T05:18:08.316Z,18.10
2017-05-30T05:20:35.878Z,18.10
2017-05-30T05:23:04.248Z,18.20
2017-05-30T05:25:31.948Z,18.20
2017-05-30T05:28:00.288Z,18.30
2017-05-30T05:30:28.619Z,18.30
2017-05-30T05:32:57.084Z,18.30
2017-05-30T05:35:25.423Z,18.30
2017-05-30T05:37:53.765Z,18.40
2017-05-30T05:40:22.341Z,18.50
2017-05-30T05:42:50.669Z,18.60
2017-05-30T05:45:19.003Z,18.70
2017-05-30T05:47:47.615Z,18.80
2017-05-30T05:50:15.945Z,18.90
2017-05-30T05:52:44.273Z,18.90
2017-05-30T05:55:12.768Z,18.90
2017-05-30T05:57:41.099Z,18.90
2017-05-30T06:00:09.437Z,19.00
2017-05-30T06:02:37.817Z,19.00
2017-05-30T06:05:06.147Z,19.00
2017-05-30T06:07:34.471Z,19.00
2017-05-30T06:10:02.974Z,19.00
2017-05-30T06:12:31.319Z,19.10
2017-05-30T06:14:59.669Z,19.20
2017-05-30T06:17:28.360Z,19.20
2017-05-30T06:19:56.708Z,19.20
2017-05-30T06:22:24.277Z,19.20
2017-05-30T06:24:52.749Z,19.30
2017-05-30T06:27:21.083Z,19.40
2017-05-30T06:29:49.428Z,19.50
2017-05-30T06:32:17.917Z,19.40
2017-05-30T06:34:46.249Z,19.50
2017-05-30T06:37:14.591Z,19.50
2017-05-30T06:39:43.449Z,19.40
2017-05-30T06:42:11.811Z,19.40
2017-05-30T06:44:40.145Z,19.40
2017-05-30T06:47:08.689Z,19.40
2017-05-30T06:49:37.025Z,19.40
2017-05-30T06:52:05.360Z,19.50
2017-05-30T06:54:34.032Z,19.40
2017-05-30T06:57:02.572Z,19.40
2017-05-30T06:59:30.896Z,19.40
2017-05-30T07:01:59.419Z,19.40
2017-05-30T07:04:27.756Z,19.40
2017-05-30T07:06:56.102Z,19.50
2017-05-30T07:09:24.516Z,19.50
2017-05-30T07:11:52.861Z,19.50
2017-05-30T07:16:56.364Z,19.60
2017-05-30T07:19:24.710Z,19.60
2017-05-30T07:21:53.055Z,19.60
2017-05-30T07:24:21.525Z,19.70
2017-05-30T07:26:49.867Z,19.60
2017-05-30T07:29:18.209Z,19.60
2017-05-30T07:31:46.776Z,19.60
2017-05-30T07:34:15.128Z,19.60
2017-05-30T07:36:43.497Z,19.60
2017-05-30T07:39:11.871Z,19.50
2017-05-30T07:41:40.251Z,19.50
2017-05-30T07:44:08.586Z,19.50
2017-05-30T07:46:37.248Z,19.50
2017-05-30T07:49:05.580Z,19.50
2017-05-30T07:51:33.921Z,19.50
2017-05-30T07:54:02.576Z,19.60
2017-05-30T07:56:30.912Z,19.70
2017-05-30T07:58:59.240Z,19.80
2017-05-30T08:01:27.815Z,19.80
2017-05-30T08:03:56.159Z,20.00
2017-05-30T08:06:24.500Z,20.10
2017-05-30T08:08:53.058Z,20.10
2017-05-30T08:11:21.410Z,20.20
2017-05-30T08:13:49.796Z,20.30
2017-05-30T08:16:18.313Z,20.30
2017-05-30T08:18:46.664Z,20.40
2017-05-30T08:21:14.999Z,20.40
2017-05-30T08:23:43.851Z,20.60
2017-05-30T08:26:12.187Z,20.80
2017-05-30T08:28:40.524Z,20.80
2017-05-30T08:31:08.928Z,20.80
2017-05-30T08:33:37.272Z,21.00
2017-05-30T08:36:06.752Z,21.00
2017-05-30T08:38:35.345Z,21.10
2017-05-30T08:41:03.684Z,21.20
2017-05-30T08:43:32.023Z,21.30
2017-05-30T08:46:00.676Z,21.30
2017-05-30T08:48:29.015Z,21.40
2017-05-30T08:50:57.364Z,21.60
2017-05-30T08:53:25.752Z,21.90
2017-05-30T08:55:54.096Z,22.20
2017-05-30T08:58:22.440Z,22.40
2017-05-30T09:00:51.776Z,22.60
2017-05-30T09:03:20.949Z,22.70
2017-05-30T09:05:49.280Z,22.80
2017-05-30T09:08:18.140Z,23.00
2017-05-30T09:10:46.480Z,23.00
2017-05-30T09:13:14.820Z,22.90
2017-05-30T09:15:42.530Z,22.90
2017-05-30T09:18:10.871Z,23.10
2017-05-30T09:20:39.205Z,23.30
2017-05-30T09:23:07.791Z,23.40
2017-05-30T09:25:36.598Z,23.60
2017-05-30T09:28:04.944Z,23.80
2017-05-30T09:30:33.455Z,24.00
2017-05-30T09:33:01.798Z,24.10
2017-05-30T09:35:30.141Z,24.20
2017-05-30T09:37:58.692Z,24.30
2017-05-30T09:40:27.029Z,24.40
2017-05-30T09:42:55.382Z,24.50
2017-05-30T09:45:23.775Z,24.50
2017-05-30T09:47:52.107Z,24.60
2017-05-30T09:50:20.475Z,24.70
2017-05-30T09:52:48.944Z,24.70
2017-05-30T09:55:17.284Z,24.70
2017-05-30T09:57:45.611Z,24.70
2017-05-30T10:00:14.304Z,24.80
2017-05-30T10:02:42.700Z,24.90
2017-05-30T10:05:11.035Z,25.10
2017-05-30T10:07:39.715Z,25.00
2017-05-30T10:10:08.063Z,25.00
2017-05-30T10:12:36.396Z,25.10
2017-05-30T10:15:04.969Z,25.30
2017-05-30T10:17:33.304Z,25.40
2017-05-30T10:20:01.807Z,25.50
2017-05-30T10:22:30.215Z,25.40
2017-05-30T10:24:58.545Z,25.60
2017-05-30T10:27:26.916Z,25.60
2017-05-30T10:29:55.281Z,25.70
2017-05-30T10:32:23.622Z,25.70
2017-05-30T10:34:51.956Z,25.70
2017-05-30T10:37:20.609Z,25.80
2017-05-30T10:39:48.941Z,26.10
2017-05-30T10:42:17.280Z,26.10
2017-05-30T10:44:45.816Z,26.20
2017-05-30T10:47:14.149Z,26.30
2017-05-30T10:49:42.487Z,26.30
2017-05-30T10:52:11.071Z,26.30
2017-05-30T10:54:39.399Z,26.10
2017-05-30T10:57:07.729Z,26.10
2017-05-30T10:59:36.288Z,26.10
2017-05-30T11:02:04.613Z,26.10
2017-05-30T11:04:32.945Z,26.20
2017-05-30T11:07:01.629Z,26.30
2017-05-30T11:09:29.960Z,26.50
2017-05-30T11:11:58.287Z,26.50
2017-05-30T11:14:26.967Z,26.50
2017-05-30T11:16:55.291Z,26.60
2017-05-30T11:19:23.635Z,26.70
2017-05-30T11:21:52.085Z,26.70
2017-05-30T11:24:20.413Z,26.60
2017-05-30T11:26:48.744Z,26.50
2017-05-30T11:29:17.222Z,26.50
2017-05-30T11:31:45.550Z,26.50
2017-05-30T11:34:13.880Z,26.60
2017-05-30T11:36:42.396Z,26.80
2017-05-30T11:39:10.724Z,26.80
2017-05-30T11:41:39.048Z,26.80
2017-05-30T11:44:07.412Z,26.80
2017-05-30T11:46:36.298Z,27.00
2017-05-30T11:49:05.775Z,27.10
2017-05-30T11:51:34.388Z,27.10
2017-05-30T11:54:02.733Z,27.10
2017-05-30T11:56:31.072Z,27.20
2017-05-30T11:58:59.743Z,27.20
2017-05-30T12:01:28.071Z,27.30
2017-05-30T12:03:56.409Z,27.10
2017-05-30T12:06:24.873Z,26.90
2017-05-30T12:08:53.195Z,26.70
2017-05-30T12:11:21.528Z,26.60
2017-05-30T12:13:50.275Z,26.30
2017-05-30T12:16:18.608Z,26.00
2017-05-30T12:18:47.488Z,25.80
2017-05-30T12:21:15.879Z,25.70
2017-05-30T12:23:44.212Z,25.60
2017-05-30T12:26:12.542Z,25.40
2017-05-30T12:28:40.938Z,25.30
2017-05-30T12:31:09.271Z,25.30
2017-05-30T12:33:37.599Z,25.30
2017-05-30T12:36:06.223Z,25.30
2017-05-30T12:38:34.553Z,25.60
2017-05-30T12:41:02.915Z,25.60
2017-05-30T12:43:32.284Z,25.60
2017-05-30T12:46:00.636Z,25.60
2017-05-30T12:48:28.963Z,25.60
2017-05-30T12:50:57.640Z,25.40
2017-05-30T12:53:25.974Z,25.50
2017-05-30T12:55:54.354Z,25.50
2017-05-30T12:58:22.955Z,25.30
2017-05-30T13:00:50.545Z,25.30
2017-05-30T13:03:19.195Z,25.20
2017-05-30T13:05:47.723Z,25.20
2017-05-30T13:08:16.679Z,25.20
2017-05-30T13:10:45.040Z,25.30
2017-05-30T13:13:13.644Z,25.30
2017-05-30T13:15:41.995Z,25.30
2017-05-30T13:18:10.335Z,25.10
2017-05-30T13:20:39.860Z,25.10
2017-05-30T13:23:07.431Z,25.10
2017-05-30T13:25:35.776Z,25.10
2017-05-30T13:28:04.515Z,25.00
2017-05-30T13:30:32.855Z,24.90
2017-05-30T13:33:01.884Z,24.80
2017-05-30T13:35:30.472Z,24.90
2017-05-30T13:37:58.811Z,24.80
2017-05-30T13:40:27.137Z,24.80
2017-05-30T13:42:55.605Z,24.70
2017-05-30T13:45:23.980Z,24.70
2017-05-30T13:47:52.308Z,24.80
2017-05-30T13:50:20.680Z,25.00
2017-05-30T13:52:49.021Z,24.90
2017-05-30T13:55:17.351Z,24.80
2017-05-30T13:57:45.984Z,24.80
2017-05-30T14:00:14.321Z,24.80
2017-05-30T14:02:41.893Z,24.80
2017-05-30T14:05:09.664Z,25.00
2017-05-30T14:07:38.018Z,25.10
2017-05-30T14:10:06.343Z,25.00
2017-05-30T14:12:34.804Z,24.90
2017-05-30T14:15:03.158Z,24.70
2017-05-30T14:17:31.504Z,24.60
2017-05-30T14:20:00.003Z,24.60
2017-05-30T14:22:28.364Z,24.60
2017-05-30T14:24:56.691Z,24.60
2017-05-30T14:27:25.300Z,24.60
2017-05-30T14:29:53.632Z,24.30
2017-05-30T14:32:21.978Z,24.20
2017-05-30T14:34:50.473Z,24.10
2017-05-30T14:37:18.874Z,24.00
2017-05-30T14:39:47.254Z,24.00
2017-05-30T14:42:15.648Z,23.90
2017-05-30T14:44:44.008Z,24.00
2017-05-30T14:47:12.380Z,24.00
2017-05-30T14:49:40.905Z,23.90
2017-05-30T14:52:09.243Z,23.90
2017-05-30T14:54:37.582Z,23.80
2017-05-30T14:57:06.034Z,23.80
2017-05-30T14:59:34.357Z,23.80
2017-05-30T15:02:02.693Z,23.60
2017-05-30T15:04:31.165Z,23.30
2017-05-30T15:06:59.488Z,22.70
2017-05-30T15:09:27.820Z,22.20
2017-05-30T15:11:56.328Z,21.40
2017-05-30T15:14:24.663Z,20.90
2017-05-30T15:16:53.025Z,20.50
2017-05-30T15:19:21.521Z,20.40
2017-05-30T15:21:49.944Z,20.30
2017-05-30T15:24:18.286Z,20.20
2017-05-30T15:26:46.775Z,20.00
2017-05-30T15:29:15.133Z,19.90
2017-05-30T15:31:43.481Z,19.70
2017-05-30T15:34:12.008Z,19.70
2017-05-30T15:36:40.360Z,19.70
2017-05-30T15:39:08.704Z,19.70
2017-05-30T15:41:37.275Z,19.60
2017-05-30T15:44:05.622Z,19.50
2017-05-30T15:46:33.970Z,19.50
2017-05-30T15:49:02.492Z,19.70
2017-05-30T15:51:30.073Z,19.60
2017-05-30T15:53:58.424Z,19.90
2017-05-30T15:56:26.960Z,19.90
2017-05-30T15:58:55.307Z,20.00
2017-05-30T16:01:23.661Z,20.10
2017-05-30T16:03:52.145Z,20.00
2017-05-30T16:06:20.490Z,19.90
2017-05-30T16:08:48.868Z,19.90
2017-05-30T16:11:17.425Z,20.00
2017-05-30T16:13:45.765Z,20.00
2017-05-30T16:16:14.928Z,20.00
2017-05-30T16:18:43.665Z,20.10
2017-05-30T16:21:12.004Z,20.00
2017-05-30T16:23:40.371Z,19.90
2017-05-30T16:26:08.857Z,20.00
2017-05-30T16:28:37.225Z,20.00
2017-05-30T16:31:05.592Z,20.10
2017-05-30T16:33:34.113Z,20.20
2017-05-30T16:36:02.456Z,20.20
2017-05-30T16:38:30.810Z,20.10
2017-05-30T16:40:59.288Z,20.10
2017-05-30T16:43:28.359Z,20.10
2017-05-30T16:45:56.726Z,20.10
2017-05-30T16:48:25.243Z,20.20
2017-05-30T16:50:53.591Z,20.40
2017-05-30T16:53:21.944Z,20.50
2017-05-30T16:55:50.454Z,20.50
2017-05-30T16:58:18.816Z,20.50
2017-05-30T17:00:47.335Z,20.50
2017-05-30T17:03:15.865Z,20.50
2017-05-30T17:05:44.208Z,20.40
2017-05-30T17:08:12.559Z,20.30
2017-05-30T17:10:41.041Z,20.20
2017-05-30T17:13:09.391Z,20.20
2017-05-30T17:15:37.744Z,20.20
2017-05-30T17:18:06.265Z,20.00
2017-05-30T17:20:34.608Z,20.00
2017-05-30T17:23:02.968Z,20.10
2017-05-30T17:25:30.584Z,20.10
2017-05-30T17:27:58.930Z,20.00
2017-05-30T17:30:27.284Z,20.00
2017-05-30T17:32:55.772Z,19.90
2017-05-30T17:35:24.143Z,19.90
2017-05-30T17:37:52.494Z,19.80
2017-05-30T17:40:21.063Z,19.80
2017-05-30T17:42:49.756Z,19.70
2017-05-30T17:45:18.124Z,19.70
2017-05-30T17:47:46.523Z,19.60
2017-05-30T17:50:14.882Z,19.60
2017-05-30T17:52:43.248Z,19.60
2017-05-30T17:55:11.787Z,19.70
2017-05-30T17:57:40.152Z,19.60
2017-05-30T18:00:08.513Z,19.60
2017-05-30T18:02:36.913Z,19.60
2017-05-30T18:05:05.263Z,19.70
2017-05-30T18:07:33.609Z,19.60
2017-05-30T18:10:02.024Z,19.60
2017-05-30T18:12:29.619Z,19.60
2017-05-30T18:14:57.988Z,19.70
2017-05-30T18:17:26.408Z,19.70
2017-05-30T18:19:54.857Z,19.60
2017-05-30T18:22:23.340Z,19.60
2017-05-30T18:24:51.714Z,19.60
2017-05-30T18:27:20.073Z,19.60
2017-05-30T18:29:48.458Z,19.40
2017-05-30T18:32:17.242Z,19.40
2017-05-30T18:34:45.605Z,19.40
2017-05-30T18:37:13.986Z,19.30
2017-05-30T18:39:42.390Z,19.30
2017-05-30T18:42:10.775Z,19.30
2017-05-30T18:44:39.126Z,19.20
2017-05-30T18:47:07.530Z,19.30
2017-05-30T18:49:35.880Z,19.30
2017-05-30T18:52:04.242Z,19.30
2017-05-30T18:54:32.665Z,19.30
2017-05-30T18:57:01.008Z,19.10
2017-05-30T18:59:28.666Z,19.20
2017-05-30T19:01:57.065Z,19.00
2017-05-30T19:04:25.502Z,18.90
2017-05-30T19:06:53.847Z,19.00
2017-05-30T19:09:22.313Z,18.90
2017-05-30T19:11:50.659Z,19.00
2017-05-30T19:14:18.250Z,19.00
2017-05-30T19:16:46.655Z,18.90
2017-05-30T19:19:15.056Z,18.80
2017-05-30T19:21:43.596Z,18.80
2017-05-30T19:24:14.516Z,18.80
2017-05-30T19:26:47.582Z,18.70
2017-05-30T19:29:15.411Z,18.70
2017-05-30T19:31:47.629Z,18.70
2017-05-30T19:34:18.289Z,18.70
2017-05-30T19:36:47.504Z,18.60
2017-05-30T19:39:15.089Z,18.60
2017-05-30T19:41:43.482Z,18.40
2017-05-30T19:44:11.825Z,18.40
2017-05-30T19:46:40.161Z,18.50
2017-05-30T19:49:07.806Z,18.50
2017-05-30T19:51:36.150Z,18.50
2017-05-30T19:54:04.511Z,18.60
2017-05-30T19:56:33.003Z,18.60
2017-05-30T19:59:01.364Z,18.60
2017-05-30T20:01:29.870Z,18.60
2017-05-30T20:03:58.512Z,18.50
2017-05-30T20:06:26.856Z,18.40
2017-05-30T20:08:55.220Z,18.40
2017-05-30T20:11:23.695Z,18.30
2017-05-30T20:13:52.054Z,18.30
2017-05-30T20:16:20.441Z,18.30
2017-05-30T20:18:49.791Z,18.30
2017-05-30T20:21:18.146Z,18.30
2017-05-30T20:23:45.728Z,18.30
2017-05-30T20:26:14.416Z,18.20
2017-05-30T20:28:42.856Z,18.20
2017-05-30T20:31:11.227Z,18.20
2017-05-30T20:33:39.808Z,18.20
2017-05-30T20:36:08.148Z,18.20
2017-05-30T20:38:36.524Z,18.10
2017-05-30T20:41:05.298Z,18.20
2017-05-30T20:43:33.752Z,18.20
2017-05-30T20:46:02.109Z,18.20
2017-05-30T20:48:30.505Z,18.20
2017-05-30T20:50:58.865Z,18.20
2017-05-30T20:53:27.225Z,18.10
2017-05-30T20:55:55.755Z,18.10
2017-05-30T20:58:24.094Z,18.10
2017-05-30T21:00:52.453Z,18.10
2017-05-30T21:03:20.835Z,18.00
2017-05-30T21:05:49.190Z,18.10
2017-05-30T21:08:17.545Z,18.10
2017-05-30T21:10:46.065Z,18.10
2017-05-30T21:13:13.647Z,18.10
2017-05-30T21:15:41.999Z,18.20
2017-05-30T21:18:10.522Z,18.20
2017-05-30T21:20:38.868Z,18.20
2017-05-30T21:23:10.382Z,18.10
2017-05-30T21:25:38.732Z,18.10
2017-05-30T21:28:07.065Z,18.10
2017-05-30T21:30:34.681Z,18.20
2017-05-30T21:33:02.272Z,18.20
2017-05-30T21:35:29.839Z,18.10
2017-05-30T21:37:58.352Z,18.10
2017-05-30T21:40:26.745Z,18.10
2017-05-30T21:42:55.074Z,18.10
2017-05-30T21:45:25.617Z,18.00
2017-05-30T21:47:53.973Z,18.10
2017-05-30T21:50:22.331Z,18.20
2017-05-30T21:52:50.835Z,18.10
2017-05-30T21:55:19.958Z,18.10
2017-05-30T21:57:48.299Z,18.10
2017-05-30T22:00:16.664Z,18.10
2017-05-30T22:02:45.048Z,18.10
2017-05-30T22:05:13.403Z,18.10
2017-05-30T22:07:41.963Z,18.10
2017-05-30T22:10:10.308Z,18.10
2017-05-30T22:12:38.675Z,18.10
2017-05-30T22:15:07.040Z,18.10
2017-05-30T22:17:36.205Z,18.10
2017-05-30T22:20:04.572Z,18.10
2017-05-30T22:22:32.949Z,18.20
2017-05-30T22:25:01.290Z,18.20
2017-05-30T22:27:30.482Z,18.20
2017-05-30T22:29:59.285Z,18.20
2017-05-30T22:32:28.299Z,18.20
2017-05-30T22:34:59.231Z,18.30
2017-05-30T22:37:28.884Z,18.40
2017-05-30T22:39:56.495Z,18.30
2017-05-30T22:42:24.835Z,18.30
2017-05-30T22:44:53.359Z,18.20
2017-05-30T22:47:21.709Z,18.10
2017-05-30T22:49:49.501Z,18.10
2017-05-30T22:52:17.317Z,18.10
2017-05-30T22:54:45.663Z,17.90
2017-05-30T22:57:14.967Z,17.90
2017-05-30T22:59:43.547Z,17.90
2017-05-30T23:02:12.028Z,17.90
2017-05-30T23:04:40.370Z,17.80
2017-05-30T23:07:09.076Z,17.80
2017-05-30T23:09:37.516Z,17.90
2017-05-30T23:12:05.862Z,17.90
2017-05-30T23:14:34.429Z,17.90
2017-05-30T23:17:02.838Z,17.80
2017-05-30T23:19:31.244Z,17.80
2017-05-30T23:21:59.775Z,17.90
2017-05-30T23:24:28.126Z,17.90
2017-05-30T23:26:56.493Z,17.90
2017-05-30T23:29:25.384Z,17.80
2017-05-30T23:31:53.787Z,17.90
2017-05-30T23:34:22.149Z,17.90
2017-05-30T23:36:50.681Z,17.80
2017-05-30T23:39:19.020Z,17.80
2017-05-30T23:41:47.355Z,17.80
2017-05-30T23:44:15.887Z,17.80
2017-05-30T23:46:44.233Z,17.80
2017-05-30T23:49:12.568Z,17.70
2017-05-30T23:51:40.960Z,17.60
2017-05-30T23:54:09.303Z,17.60
2017-05-30T23:56:37.639Z,17.50
2017-05-30T23:59:05.404Z,17.50
